Time;durP1;ratioP1;P1;durP2;ratioP2;P2;SDS_P1;SDS_P2;PMS_P1;PMS_P2;Temp;Humidity;BMP_temperature;BMP_pressure;BME280_temperature;BME280_humidity;BME280_pressure;Samples;Min_cycle;Max_cycle;Signal;HPM_P1;HPM_P2
2023/12/19 00:01:16;;;;;;;15.40;11.93;;;2.00;99.90;;;;;;5051643;28;20233;-67
2023/12/19 00:03:44;;;;;;;15.15;11.73;;;2.00;99.90;;;;;;5049365;28;20206;-67
2023/12/19 00:06:13;;;;;;;15.88;11.85;;;2.00;99.90;;;;;;5051059;28;20198;-68
2023/12/19 00:08:40;;;;;;;18.05;12.45;;;1.90;99.90;;;;;;5051132;28;20205;-67
2023/12/19 00:11:08;;;;;;;16.40;11.60;;;1.90;99.90;;;;;;5051679;28;20715;-67
2023/12/19 00:13:36;;;;;;;15.88;12.18;;;1.90;99.90;;;;;;5051632;28;20210;-67
2023/12/19 00:16:04;;;;;;;18.40;12.98;;;1.90;99.90;;;;;;5051192;28;20305;-67
2023/12/19 00:18:34;;;;;;;16.15;11.95;;;1.90;99.90;;;;;;5050569;28;20209;-67
2023/12/19 00:21:02;;;;;;;18.10;11.48;;;2.00;99.90;;;;;;5051584;28;20680;-67
2023/12/19 00:23:32;;;;;;;15.82;11.82;;;2.00;99.90;;;;;;5051315;28;20209;-67
2023/12/19 00:26:00;;;;;;;17.55;12.13;;;2.00;99.90;;;;;;5050533;28;20640;-67
2023/12/19 00:28:28;;;;;;;14.43;11.88;;;2.00;99.90;;;;;;5050883;28;20296;-67
2023/12/19 00:30:56;;;;;;;15.85;11.50;;;2.00;99.90;;;;;;5051721;28;20230;-67
2023/12/19 00:33:24;;;;;;;15.35;11.35;;;2.00;99.90;;;;;;5051351;28;20252;-67
2023/12/19 00:35:53;;;;;;;16.77;11.60;;;2.10;99.90;;;;;;5050659;28;20224;-67
2023/12/19 00:38:21;;;;;;;17.15;11.95;;;2.10;99.90;;;;;;5051222;28;20312;-67
2023/12/19 00:40:49;;;;;;;16.92;11.88;;;2.10;99.90;;;;;;5051416;28;21326;-67
2023/12/19 00:43:17;;;;;;;16.08;11.65;;;2.10;99.90;;;;;;5051249;28;20327;-67
2023/12/19 00:45:45;;;;;;;13.27;10.32;;;2.10;99.90;;;;;;5050676;28;20292;-67
2023/12/19 00:48:13;;;;;;;16.48;11.65;;;2.00;99.90;;;;;;5050676;28;20229;-67
2023/12/19 00:50:41;;;;;;;14.82;10.77;;;2.10;99.90;;;;;;5050929;28;20206;-67
2023/12/19 00:53:10;;;;;;;15.88;11.60;;;2.10;99.90;;;;;;5051246;28;20268;-67
2023/12/19 00:55:39;;;;;;;12.20;10.25;;;2.10;99.90;;;;;;5050657;28;20230;-67
2023/12/19 00:58:06;;;;;;;14.80;11.32;;;2.10;99.90;;;;;;5050746;28;20610;-67
2023/12/19 01:00:34;;;;;;;16.52;11.63;;;2.10;99.90;;;;;;5051014;28;20210;-67
2023/12/19 01:03:02;;;;;;;12.95;10.38;;;2.20;99.90;;;;;;5050759;28;20202;-67
2023/12/19 01:05:30;;;;;;;15.40;11.15;;;2.10;99.90;;;;;;5050836;28;20585;-67
2023/12/19 01:07:58;;;;;;;14.07;10.93;;;2.10;99.90;;;;;;5050568;28;20699;-67
2023/12/19 01:10:27;;;;;;;15.23;10.15;;;2.10;99.90;;;;;;5050848;28;20301;-67
2023/12/19 01:12:55;;;;;;;15.15;9.95;;;2.10;99.90;;;;;;5050827;28;20206;-67
2023/12/19 01:15:24;;;;;;;14.43;10.65;;;2.10;99.90;;;;;;5050512;28;20488;-67
2023/12/19 01:17:52;;;;;;;13.98;10.85;;;2.10;99.90;;;;;;5050329;28;20766;-67
2023/12/19 01:20:20;;;;;;;14.48;10.73;;;2.10;99.90;;;;;;5050969;28;20581;-67
2023/12/19 01:22:48;;;;;;;14.25;11.05;;;2.20;99.90;;;;;;5050809;28;20206;-67
2023/12/19 01:25:15;;;;;;;13.02;10.57;;;2.10;99.90;;;;;;5050518;28;20214;-67
2023/12/19 01:27:45;;;;;;;15.23;10.50;;;2.10;99.90;;;;;;5050308;28;20230;-67
2023/12/19 01:30:13;;;;;;;15.40;10.68;;;2.10;99.90;;;;;;5050726;28;20208;-67
2023/12/19 01:32:42;;;;;;;14.90;10.95;;;2.10;99.90;;;;;;5054595;28;20202;-67
2023/12/19 01:35:10;;;;;;;12.60;10.10;;;2.10;99.90;;;;;;5054118;28;20272;-67
2023/12/19 01:37:38;;;;;;;13.55;10.65;;;2.10;99.90;;;;;;5053980;28;20719;-67
2023/12/19 01:40:08;;;;;;;13.85;10.35;;;2.10;99.90;;;;;;5054407;28;20206;-67
2023/12/19 01:42:36;;;;;;;14.32;11.50;;;2.10;99.90;;;;;;5054186;28;20209;-67
2023/12/19 01:45:10;;;;;;;15.52;10.15;;;2.00;99.90;;;;;;5054333;28;20240;-67
2023/12/19 01:47:40;;;;;;;22.63;10.88;;;2.00;99.90;;;;;;5053916;28;20229;-67
2023/12/19 01:50:08;;;;;;;17.58;12.10;;;2.00;99.90;;;;;;5054435;28;20228;-67
2023/12/19 01:52:36;;;;;;;15.98;11.68;;;2.00;99.90;;;;;;5054204;28;20206;-67
2023/12/19 01:55:05;;;;;;;14.10;10.30;;;1.90;99.90;;;;;;5053684;28;20655;-67
2023/12/19 01:57:33;;;;;;;14.35;10.68;;;1.90;99.90;;;;;;5054054;28;20233;-67
2023/12/19 02:00:01;;;;;;;15.20;11.10;;;1.90;99.90;;;;;;5046676;28;20225;-67
2023/12/19 02:02:30;;;;;;;13.32;10.52;;;1.90;99.90;;;;;;5053957;28;20742;-67
2023/12/19 02:04:59;;;;;;;16.08;11.35;;;1.90;99.90;;;;;;5053604;28;20229;-67
2023/12/19 02:07:27;;;;;;;14.95;11.02;;;1.90;99.90;;;;;;5053453;28;20272;-67
2023/12/19 02:09:55;;;;;;;15.15;11.63;;;1.90;99.90;;;;;;5053649;28;20732;-67
2023/12/19 02:12:22;;;;;;;13.77;10.52;;;1.80;99.90;;;;;;5053986;28;20202;-67
2023/12/19 02:14:50;;;;;;;15.43;11.30;;;1.80;99.90;;;;;;5053555;28;20210;-67
2023/12/19 02:17:18;;;;;;;12.13;9.38;;;1.80;99.90;;;;;;5053364;28;20248;-67
2023/12/19 02:19:49;;;;;;;13.32;10.02;;;1.70;99.90;;;;;;5053678;28;20275;-67
2023/12/19 02:22:17;;;;;;;20.95;10.93;;;1.70;99.90;;;;;;5053559;28;20201;-67
2023/12/19 02:24:46;;;;;;;15.32;10.27;;;1.60;99.90;;;;;;5044802;28;20214;-67
2023/12/19 02:27:14;;;;;;;14.32;10.48;;;1.70;99.90;;;;;;5052566;28;20591;-67
2023/12/19 02:29:42;;;;;;;12.93;9.80;;;1.60;99.90;;;;;;5053309;28;20642;-67
2023/12/19 02:32:10;;;;;;;12.25;9.55;;;1.60;99.90;;;;;;5053423;28;20224;-67
2023/12/19 02:34:38;;;;;;;11.57;9.45;;;1.60;99.90;;;;;;5053292;28;20244;-67
2023/12/19 02:37:05;;;;;;;14.93;9.73;;;1.60;99.90;;;;;;5053113;28;20229;-67
2023/12/19 02:39:34;;;;;;;15.45;8.93;;;1.60;99.90;;;;;;5053745;28;20702;-67
2023/12/19 02:42:04;;;;;;;11.05;8.70;;;1.60;99.90;;;;;;5052973;28;20264;-67
2023/12/19 02:44:32;;;;;;;12.95;9.10;;;1.60;99.90;;;;;;5053183;28;20264;-68
2023/12/19 02:46:59;;;;;;;14.02;9.68;;;1.60;99.90;;;;;;5052939;28;20663;-67
2023/12/19 02:49:27;;;;;;;13.13;9.82;;;1.60;99.90;;;;;;5053259;28;20280;-68
2023/12/19 02:51:55;;;;;;;14.73;10.63;;;1.60;99.90;;;;;;5053016;28;20260;-68
2023/12/19 02:54:23;;;;;;;10.98;9.45;;;1.60;99.90;;;;;;5052796;28;20233;-68
2023/12/19 02:56:51;;;;;;;12.43;9.27;;;1.60;99.90;;;;;;5052832;28;20226;-68
2023/12/19 02:59:21;;;;;;;14.68;10.02;;;1.60;99.90;;;;;;5053188;28;20210;-68
2023/12/19 03:01:49;;;;;;;12.70;9.70;;;1.60;99.90;;;;;;5053131;28;20238;-68
2023/12/19 03:04:16;;;;;;;10.90;9.50;;;1.60;99.90;;;;;;5052453;28;20212;-68
2023/12/19 03:06:44;;;;;;;14.65;9.77;;;1.50;99.90;;;;;;5052763;28;20313;-68
2023/12/19 03:09:12;;;;;;;14.63;10.50;;;1.50;99.90;;;;;;5052522;28;20202;-68
2023/12/19 03:11:40;;;;;;;15.88;9.95;;;1.50;99.90;;;;;;5052739;28;20279;-68
2023/12/19 03:14:08;;;;;;;13.52;9.63;;;1.50;99.90;;;;;;5051887;28;20230;-67
2023/12/19 03:16:37;;;;;;;12.68;9.30;;;1.50;99.90;;;;;;5052402;28;20865;-68
2023/12/19 03:19:05;;;;;;;15.05;10.27;;;1.50;99.90;;;;;;5052494;28;20241;-68
2023/12/19 03:21:33;;;;;;;16.02;9.32;;;1.50;99.90;;;;;;5052780;28;20235;-68
2023/12/19 03:24:01;;;;;;;17.88;10.95;;;1.50;99.90;;;;;;5052577;28;20202;-68
2023/12/19 03:26:29;;;;;;;16.92;10.40;;;1.60;99.90;;;;;;5052404;28;20610;-68
2023/12/19 03:28:57;;;;;;;16.10;10.02;;;1.60;99.90;;;;;;5052451;28;20245;-68
2023/12/19 03:31:24;;;;;;;12.73;10.05;;;1.60;99.90;;;;;;5052486;28;20648;-67
2023/12/19 03:33:54;;;;;;;17.27;10.38;;;1.60;99.90;;;;;;5052226;28;20206;-68
2023/12/19 03:36:22;;;;;;;15.75;10.45;;;1.60;99.90;;;;;;5051697;28;20299;-67
2023/12/19 03:38:50;;;;;;;19.95;12.00;;;1.60;99.90;;;;;;5052132;28;20218;-68
2023/12/19 03:41:18;;;;;;;19.08;12.55;;;1.70;99.90;;;;;;5052346;28;20252;-68
2023/12/19 03:43:46;;;;;;;18.90;12.40;;;1.70;99.90;;;;;;5052099;28;20252;-67
2023/12/19 03:46:14;;;;;;;19.90;12.15;;;1.70;99.90;;;;;;5051586;28;20225;-67
2023/12/19 03:48:44;;;;;;;22.83;13.48;;;1.70;99.90;;;;;;5051436;28;20681;-68
2023/12/19 03:51:14;;;;;;;23.98;14.25;;;1.70;99.90;;;;;;5052468;28;20206;-68
2023/12/19 03:53:42;;;;;;;23.42;14.18;;;1.70;99.90;;;;;;5051630;28;20232;-68
2023/12/19 03:56:10;;;;;;;21.30;13.38;;;1.80;99.90;;;;;;5051501;28;20206;-67
2023/12/19 03:58:39;;;;;;;18.17;12.20;;;1.80;99.90;;;;;;5051412;28;20525;-68
2023/12/19 04:01:07;;;;;;;23.15;13.52;;;1.80;99.90;;;;;;5051524;28;20202;-68
2023/12/19 04:03:35;;;;;;;19.95;12.55;;;1.70;99.90;;;;;;5051994;28;20209;-68
2023/12/19 04:06:03;;;;;;;22.92;13.52;;;1.80;99.90;;;;;;5051343;28;20206;-68
2023/12/19 04:08:32;;;;;;;18.05;12.05;;;1.80;99.90;;;;;;5051441;28;20201;-68
2023/12/19 04:11:00;;;;;;;20.67;13.27;;;1.80;99.90;;;;;;5051739;28;20225;-67
2023/12/19 04:13:29;;;;;;;22.90;13.75;;;1.80;99.90;;;;;;5051409;28;20584;-68
2023/12/19 04:15:57;;;;;;;19.85;13.25;;;1.80;99.90;;;;;;5051058;28;20213;-68
2023/12/19 04:18:25;;;;;;;23.10;14.13;;;1.80;99.90;;;;;;5051052;28;20324;-68
2023/12/19 04:20:53;;;;;;;21.52;14.35;;;1.90;99.90;;;;;;5051765;28;20264;-67
2023/12/19 04:23:20;;;;;;;23.92;14.18;;;1.90;99.90;;;;;;5051474;28;20247;-68
2023/12/19 04:25:50;;;;;;;23.38;13.75;;;1.90;99.90;;;;;;5050858;28;20210;-68
2023/12/19 04:28:17;;;;;;;19.65;12.48;;;1.90;99.90;;;;;;5051042;28;20297;-68
2023/12/19 04:30:45;;;;;;;22.88;13.70;;;1.90;99.90;;;;;;5051811;28;20214;-68
2023/12/19 04:33:13;;;;;;;22.42;14.43;;;1.90;99.90;;;;;;5051479;28;20202;-68
2023/12/19 04:35:42;;;;;;;22.65;14.20;;;1.90;99.90;;;;;;5050894;28;20268;-68
2023/12/19 04:38:09;;;;;;;21.63;14.02;;;1.90;99.90;;;;;;5050873;28;20265;-67
2023/12/19 04:40:37;;;;;;;21.80;13.95;;;1.90;99.90;;;;;;5051638;28;20210;-68
2023/12/19 04:43:06;;;;;;;22.65;13.85;;;1.90;99.90;;;;;;5051006;28;20205;-68
2023/12/19 04:45:34;;;;;;;19.92;13.25;;;1.90;99.90;;;;;;5050971;28;20202;-67
2023/12/19 04:48:02;;;;;;;24.98;14.23;;;1.90;99.90;;;;;;5051035;28;20230;-67
2023/12/19 04:50:30;;;;;;;21.25;13.65;;;1.90;99.90;;;;;;5051165;28;20201;-67
2023/12/19 04:52:58;;;;;;;26.20;14.35;;;1.90;99.90;;;;;;5051028;28;20210;-68
2023/12/19 04:55:26;;;;;;;25.75;13.90;;;1.90;99.90;;;;;;5050638;28;20202;-68
2023/12/19 04:57:54;;;;;;;22.38;14.55;;;1.90;99.90;;;;;;5050630;28;20234;-68
2023/12/19 05:00:23;;;;;;;22.33;13.63;;;1.90;99.90;;;;;;5051341;28;20205;-68
2023/12/19 05:02:53;;;;;;;21.85;14.07;;;1.90;99.90;;;;;;5050990;28;20212;-68
2023/12/19 05:05:23;;;;;;;21.90;13.90;;;2.00;99.90;;;;;;5051076;28;20522;-67
2023/12/19 05:07:51;;;;;;;18.63;12.80;;;1.90;99.90;;;;;;5054579;28;20276;-68
2023/12/19 05:10:19;;;;;;;24.33;14.88;;;2.00;99.90;;;;;;5054984;28;20300;-67
2023/12/19 05:12:47;;;;;;;25.90;14.70;;;2.00;99.90;;;;;;5054753;28;20202;-68
2023/12/19 05:15:15;;;;;;;19.23;13.38;;;2.00;99.90;;;;;;5054741;28;20201;-67
2023/12/19 05:17:44;;;;;;;20.92;13.27;;;2.00;99.90;;;;;;5054124;28;20325;-68
2023/12/19 05:20:15;;;;;;;24.05;14.93;;;2.00;99.90;;;;;;5052774;28;20582;-67
2023/12/19 05:22:43;;;;;;;20.52;13.55;;;2.10;99.90;;;;;;5052496;28;20206;-68
2023/12/19 05:25:11;;;;;;;20.25;13.68;;;2.10;99.90;;;;;;5053618;28;20198;-67
2023/12/19 05:27:43;;;;;;;21.77;14.25;;;2.10;99.90;;;;;;5054183;28;20700;-67
2023/12/19 05:30:12;;;;;;;23.75;14.15;;;2.10;99.90;;;;;;5054598;28;20370;-68
2023/12/19 05:32:40;;;;;;;20.52;13.20;;;2.10;99.90;;;;;;5051365;28;20241;-67
2023/12/19 05:35:10;;;;;;;20.35;13.25;;;2.20;99.90;;;;;;5053931;28;20202;-68
2023/12/19 05:37:38;;;;;;;22.65;13.57;;;2.10;99.90;;;;;;5054278;28;20595;-68
2023/12/19 05:40:07;;;;;;;22.00;14.43;;;2.10;99.90;;;;;;5054616;28;20210;-68
2023/12/19 05:42:36;;;;;;;22.50;14.13;;;2.10;99.90;;;;;;5054467;28;20213;-68
2023/12/19 05:45:07;;;;;;;20.63;13.65;;;2.10;99.90;;;;;;5053953;28;20597;-68
2023/12/19 05:47:36;;;;;;;18.85;12.38;;;2.10;99.90;;;;;;5053745;28;20655;-68
2023/12/19 05:50:04;;;;;;;17.70;12.80;;;2.10;99.90;;;;;;5054441;28;20306;-68
2023/12/19 05:52:33;;;;;;;19.27;13.00;;;2.10;99.90;;;;;;5054142;28;20242;-68
2023/12/19 05:55:01;;;;;;;18.75;12.77;;;2.10;99.90;;;;;;5053675;28;20591;-68
2023/12/19 05:57:29;;;;;;;16.90;11.98;;;2.10;99.90;;;;;;5053833;28;20697;-68
2023/12/19 05:59:57;;;;;;;19.13;12.70;;;2.20;99.90;;;;;;5053804;28;20621;-68
2023/12/19 06:02:25;;;;;;;21.98;13.68;;;2.20;99.90;;;;;;5054070;28;20301;-68
2023/12/19 06:04:53;;;;;;;17.70;12.60;;;2.20;99.90;;;;;;5051227;28;20340;-68
2023/12/19 06:07:21;;;;;;;18.42;12.93;;;2.20;99.90;;;;;;5051871;28;20780;-68
2023/12/19 06:09:50;;;;;;;18.08;12.80;;;2.30;99.90;;;;;;5051549;28;20259;-68
2023/12/19 06:12:18;;;;;;;17.63;12.63;;;2.20;99.90;;;;;;5052335;28;20650;-68
2023/12/19 06:14:46;;;;;;;19.10;13.18;;;2.20;99.90;;;;;;5051147;28;20668;-68
2023/12/19 06:17:14;;;;;;;17.75;11.80;;;2.20;99.90;;;;;;5052642;28;20225;-67
2023/12/19 06:19:42;;;;;;;18.33;12.23;;;2.20;99.90;;;;;;5050488;28;20625;-68
2023/12/19 06:22:10;;;;;;;20.13;13.57;;;2.20;99.90;;;;;;5053139;28;20648;-68
2023/12/19 06:24:38;;;;;;;18.80;13.02;;;2.20;99.90;;;;;;5052912;28;20687;-68
2023/12/19 06:27:07;;;;;;;19.55;12.90;;;2.20;99.90;;;;;;5052863;28;20228;-68
2023/12/19 06:29:35;;;;;;;17.60;13.15;;;2.20;99.90;;;;;;5053426;28;20679;-68
2023/12/19 06:32:03;;;;;;;17.20;12.07;;;2.20;99.90;;;;;;5053590;28;20206;-68
2023/12/19 06:34:31;;;;;;;17.00;11.90;;;2.20;99.90;;;;;;5052921;28;20206;-68
2023/12/19 06:36:59;;;;;;;19.30;13.35;;;2.20;99.90;;;;;;5052948;28;20226;-68
2023/12/19 06:39:27;;;;;;;19.98;13.50;;;2.20;99.90;;;;;;5052029;28;20221;-68
2023/12/19 06:41:55;;;;;;;18.35;13.93;;;2.20;99.90;;;;;;5053448;28;20229;-67
2023/12/19 06:44:24;;;;;;;17.92;12.88;;;2.20;99.90;;;;;;5053085;28;20198;-67
2023/12/19 06:46:52;;;;;;;17.55;12.70;;;2.20;99.90;;;;;;5050372;28;20230;-67
2023/12/19 06:49:20;;;;;;;17.70;13.43;;;2.30;99.90;;;;;;5052671;28;20385;-68
2023/12/19 06:51:48;;;;;;;19.48;13.32;;;2.30;99.90;;;;;;5053058;28;20339;-68
2023/12/19 06:54:16;;;;;;;18.60;13.60;;;2.30;99.90;;;;;;5046653;28;20248;-67
2023/12/19 06:56:44;;;;;;;20.95;12.88;;;2.30;99.90;;;;;;5052503;28;20715;-68
2023/12/19 06:59:13;;;;;;;17.08;12.82;;;2.30;99.90;;;;;;5052384;28;20268;-71
2023/12/19 07:01:42;;;;;;;19.63;13.70;;;2.40;99.90;;;;;;5052810;28;20261;-71
2023/12/19 07:04:10;;;;;;;18.13;12.10;;;2.40;99.90;;;;;;5052803;28;20250;-71
2023/12/19 07:06:38;;;;;;;19.65;12.63;;;2.40;99.90;;;;;;5052193;28;20228;-71
2023/12/19 07:09:06;;;;;;;19.65;13.32;;;2.40;99.90;;;;;;5052619;28;20206;-71
2023/12/19 07:11:34;;;;;;;19.45;13.23;;;2.40;99.90;;;;;;5051911;28;20300;-70
2023/12/19 07:14:02;;;;;;;18.33;12.77;;;2.40;99.90;;;;;;5052833;28;20234;-71
2023/12/19 07:16:30;;;;;;;18.48;12.60;;;2.40;99.90;;;;;;5052554;28;20226;-70
2023/12/19 07:19:00;;;;;;;17.52;12.48;;;2.40;99.90;;;;;;5052500;28;20321;-71
2023/12/19 07:21:29;;;;;;;17.52;11.55;;;2.40;99.90;;;;;;5050489;28;20702;-70
2023/12/19 07:23:57;;;;;;;16.73;12.30;;;2.40;99.90;;;;;;5052918;28;20210;-71
2023/12/19 07:26:26;;;;;;;17.50;12.63;;;2.40;99.90;;;;;;5052023;28;20324;-70
2023/12/19 07:28:57;;;;;;;17.55;12.80;;;2.30;99.90;;;;;;5051713;28;20248;-71
2023/12/19 07:31:25;;;;;;;24.95;13.13;;;2.30;99.90;;;;;;5052632;28;20255;-71
2023/12/19 07:33:57;;;;;;;18.75;12.10;;;2.30;99.90;;;;;;5052272;28;20301;-71
2023/12/19 07:36:26;;;;;;;17.25;12.98;;;2.30;99.90;;;;;;5052315;28;20221;-71
2023/12/19 07:38:54;;;;;;;17.45;12.90;;;2.30;99.90;;;;;;5051804;28;20217;-70
2023/12/19 07:41:26;;;;;;;19.40;13.23;;;2.30;99.90;;;;;;5052441;28;20206;-70
2023/12/19 07:43:54;;;;;;;19.63;13.20;;;2.30;99.90;;;;;;5051882;28;20618;-69
2023/12/19 07:46:22;;;;;;;21.08;13.88;;;2.30;99.90;;;;;;5051787;28;20282;-71
2023/12/19 07:48:50;;;;;;;21.42;13.52;;;2.40;99.90;;;;;;5052373;28;20205;-71
2023/12/19 07:51:19;;;;;;;22.65;15.27;;;2.40;99.90;;;;;;5044101;28;20565;-71
2023/12/19 07:53:48;;;;;;;24.42;16.00;;;2.40;99.90;;;;;;5052295;28;20206;-70
2023/12/19 07:56:16;;;;;;;25.85;15.38;;;2.40;99.90;;;;;;5051698;28;20297;-71
2023/12/19 07:58:44;;;;;;;22.45;15.07;;;2.40;99.90;;;;;;5051671;28;20252;-70
2023/12/19 08:01:12;;;;;;;22.73;15.05;;;2.40;99.90;;;;;;5052415;28;20202;-71
2023/12/19 08:03:42;;;;;;;23.20;14.65;;;2.40;99.90;;;;;;5052275;28;20598;-71
2023/12/19 08:06:10;;;;;;;24.13;15.15;;;2.40;99.90;;;;;;5051518;28;20202;-71
2023/12/19 08:08:38;;;;;;;23.08;14.70;;;2.40;99.90;;;;;;5051614;28;20745;-71
2023/12/19 08:11:08;;;;;;;23.02;14.88;;;2.50;99.90;;;;;;5052097;28;20213;-71
2023/12/19 08:13:36;;;;;;;22.83;14.95;;;2.50;99.90;;;;;;5051883;28;20213;-71
2023/12/19 08:16:05;;;;;;;21.50;14.38;;;2.50;99.90;;;;;;5051578;28;20254;-71
2023/12/19 08:18:33;;;;;;;20.13;12.90;;;2.50;99.90;;;;;;5051479;28;20668;-70
2023/12/19 08:21:03;;;;;;;22.35;14.82;;;2.50;99.90;;;;;;5052013;28;20217;-70
2023/12/19 08:23:31;;;;;;;22.52;14.07;;;2.50;99.90;;;;;;5049438;28;20209;-69
2023/12/19 08:25:59;;;;;;;23.02;15.23;;;2.50;99.90;;;;;;5051019;28;20271;-71
2023/12/19 08:28:28;;;;;;;22.85;13.88;;;2.60;99.90;;;;;;5051556;28;20257;-71
2023/12/19 08:30:56;;;;;;;23.08;14.43;;;2.60;99.90;;;;;;5051754;28;20682;-71
2023/12/19 08:33:24;;;;;;;23.00;14.57;;;2.60;99.90;;;;;;5051782;28;20212;-70
2023/12/19 08:35:52;;;;;;;26.33;14.63;;;2.60;99.90;;;;;;5050359;28;20267;-71
2023/12/19 08:38:20;;;;;;;22.80;14.18;;;2.60;99.90;;;;;;5050990;28;20312;-70
2023/12/19 08:40:47;;;;;;;23.85;13.95;;;2.70;99.90;;;;;;5052006;28;20689;-70
2023/12/19 08:43:18;;;;;;;24.42;14.38;;;2.70;99.90;;;;;;5051257;28;20301;-69
2023/12/19 08:45:48;;;;;;;22.35;15.05;;;2.70;99.90;;;;;;5049464;28;20240;-70
2023/12/19 08:48:17;;;;;;;21.25;13.00;;;2.70;99.90;;;;;;5050793;28;20316;-71
2023/12/19 08:50:45;;;;;;;25.98;14.98;;;2.70;99.90;;;;;;5051262;28;20206;-71
2023/12/19 08:53:13;;;;;;;25.38;15.30;;;2.70;99.90;;;;;;5051074;28;20263;-70
2023/12/19 08:55:42;;;;;;;22.27;14.57;;;2.70;99.90;;;;;;5050736;28;20248;-70
2023/12/19 08:58:10;;;;;;;22.13;13.68;;;2.80;99.90;;;;;;5050873;28;20299;-70
2023/12/19 09:00:38;;;;;;;24.02;14.90;;;2.80;99.90;;;;;;5051284;28;20311;-71
2023/12/19 09:03:08;;;;;;;20.75;13.95;;;2.80;99.90;;;;;;5051030;28;20206;-70
2023/12/19 09:05:35;;;;;;;21.08;13.75;;;2.80;99.90;;;;;;5050522;28;20218;-70
2023/12/19 09:08:04;;;;;;;25.20;15.38;;;2.80;99.90;;;;;;5051028;28;20245;-70
2023/12/19 09:10:32;;;;;;;21.25;14.13;;;2.80;99.90;;;;;;5050739;28;20642;-70
2023/12/19 09:13:00;;;;;;;22.98;14.05;;;2.80;99.90;;;;;;5051026;28;20267;-70
2023/12/19 09:15:28;;;;;;;22.13;13.18;;;2.80;99.90;;;;;;5050348;28;20213;-70
2023/12/19 09:17:56;;;;;;;22.63;12.80;;;2.80;99.90;;;;;;5050591;28;20228;-70
2023/12/19 09:20:25;;;;;;;20.30;13.40;;;2.90;99.90;;;;;;5042901;28;20272;-70
2023/12/19 09:22:53;;;;;;;23.13;14.10;;;2.90;99.90;;;;;;5050880;28;20238;-70
2023/12/19 09:25:21;;;;;;;20.60;13.57;;;2.90;99.90;;;;;;5050497;28;20243;-70
2023/12/19 09:27:49;;;;;;;19.02;12.82;;;2.90;99.90;;;;;;5050743;28;20242;-70
2023/12/19 09:30:17;;;;;;;20.25;12.80;;;3.00;99.90;;;;;;5050864;28;20214;-70
2023/12/19 09:32:45;;;;;;;20.45;12.95;;;3.00;99.90;;;;;;5050883;28;20225;-70
2023/12/19 09:35:13;;;;;;;18.33;11.70;;;3.00;99.90;;;;;;5050626;28;20206;-70
2023/12/19 09:37:44;;;;;;;19.17;12.77;;;3.10;99.90;;;;;;5050662;28;20222;-70
2023/12/19 09:40:15;;;;;;;17.60;11.90;;;3.10;99.90;;;;;;5050630;28;20241;-70
2023/12/19 09:42:43;;;;;;;19.80;11.95;;;3.10;99.90;;;;;;5050766;28;20241;-71
2023/12/19 09:45:12;;;;;;;17.60;11.90;;;3.10;99.90;;;;;;5050168;28;20214;-70
2023/12/19 09:47:40;;;;;;;21.90;12.40;;;3.10;99.90;;;;;;5050291;28;20719;-70
2023/12/19 09:50:12;;;;;;;17.25;11.35;;;3.10;99.90;;;;;;5050645;28;20205;-70
2023/12/19 09:52:42;;;;;;;19.35;12.55;;;3.00;99.90;;;;;;5053012;28;20299;-70
2023/12/19 09:55:11;;;;;;;17.92;11.52;;;3.10;99.90;;;;;;5053951;28;20305;-70
2023/12/19 09:57:40;;;;;;;17.85;12.35;;;3.10;99.90;;;;;;5052851;28;20225;-70
2023/12/19 10:00:10;;;;;;;19.08;12.48;;;3.10;99.90;;;;;;5053742;28;20236;-70
2023/12/19 10:02:39;;;;;;;19.95;13.13;;;3.20;99.90;;;;;;5054064;28;20729;-70
2023/12/19 10:05:08;;;;;;;18.52;11.52;;;3.20;99.90;;;;;;5053628;28;20210;-70
2023/12/19 10:07:36;;;;;;;20.15;13.50;;;3.20;99.90;;;;;;5053960;28;20230;-70
2023/12/19 10:10:08;;;;;;;18.80;12.73;;;3.30;99.90;;;;;;5053479;28;20249;-70
2023/12/19 10:12:49;;;;;;;22.65;12.10;;;3.30;99.90;;;;;;5054246;28;20205;-70
2023/12/19 10:15:25;;;;;;;17.63;11.90;;;3.30;99.90;;;;;;5053619;28;20240;-70
2023/12/19 10:18:04;;;;;;;18.40;10.70;;;3.30;99.90;;;;;;5053306;28;20316;-70
2023/12/19 10:20:33;;;;;;;17.40;10.90;;;3.50;99.90;;;;;;5053494;28;20224;-70
2023/12/19 10:23:04;;;;;;;17.77;10.27;;;3.50;99.90;;;;;;5053895;28;20206;-70
2023/12/19 10:25:33;;;;;;;16.50;10.73;;;3.70;99.90;;;;;;5053430;28;20256;-70
2023/12/19 10:28:12;;;;;;;15.50;10.25;;;3.80;99.90;;;;;;5053361;28;20297;-70
2023/12/19 10:30:41;;;;;;;14.32;9.77;;;3.80;99.90;;;;;;5053769;28;20209;-70
2023/12/19 10:33:09;;;;;;;14.48;9.85;;;3.80;99.90;;;;;;5053389;28;20301;-70
2023/12/19 10:35:37;;;;;;;14.73;9.93;;;3.90;99.90;;;;;;5053052;28;20743;-70
2023/12/19 10:38:06;;;;;;;12.43;8.82;;;3.90;99.90;;;;;;5053332;28;20226;-70
2023/12/19 10:40:38;;;;;;;12.10;8.70;;;4.00;99.90;;;;;;5053448;28;20699;-70
2023/12/19 10:43:05;;;;;;;12.52;9.15;;;3.90;99.90;;;;;;5053529;28;20748;-70
2023/12/19 10:45:34;;;;;;;14.60;8.75;;;4.00;99.90;;;;;;5052927;28;20201;-70
2023/12/19 10:48:02;;;;;;;15.60;8.85;;;4.00;99.90;;;;;;5053446;28;20313;-70
2023/12/19 10:50:30;;;;;;;12.85;8.82;;;4.00;99.90;;;;;;5053121;28;20662;-71
2023/12/19 10:53:00;;;;;;;9.80;8.07;;;4.00;99.90;;;;;;5053429;28;20276;-70
2023/12/19 10:55:29;;;;;;;9.23;7.53;;;4.10;99.90;;;;;;5052765;28;20738;-70
2023/12/19 10:57:58;;;;;;;10.45;7.60;;;4.10;99.90;;;;;;5052861;28;20260;-70
2023/12/19 11:00:26;;;;;;;12.10;8.13;;;4.10;99.90;;;;;;5053036;28;20225;-70
2023/12/19 11:02:59;;;;;;;12.07;7.25;;;4.10;99.90;;;;;;5053341;28;20202;-69
2023/12/19 11:05:29;;;;;;;10.60;7.32;;;4.10;99.90;;;;;;5052507;28;20240;-70
2023/12/19 11:07:58;;;;;;;11.23;7.30;;;4.20;99.90;;;;;;5052884;28;20615;-71
2023/12/19 11:10:26;;;;;;;11.45;7.43;;;4.20;99.90;;;;;;5052372;28;20202;-70
2023/12/19 11:12:54;;;;;;;9.93;6.88;;;4.20;99.90;;;;;;5052960;28;20297;-70
2023/12/19 11:15:24;;;;;;;9.55;5.85;;;4.20;99.90;;;;;;5052401;28;20230;-70
2023/12/19 11:17:54;;;;;;;9.13;6.68;;;4.20;99.90;;;;;;5052672;28;20256;-70
2023/12/19 11:20:24;;;;;;;10.32;7.15;;;4.10;99.90;;;;;;5052320;28;20222;-70
2023/12/19 11:23:01;;;;;;;8.98;6.32;;;4.10;99.90;;;;;;5052699;28;20718;-70
2023/12/19 11:25:33;;;;;;;13.48;8.07;;;4.20;99.90;;;;;;5052320;28;20252;-70
2023/12/19 11:28:02;;;;;;;9.60;6.25;;;4.20;99.90;;;;;;5052428;28;20232;-71
2023/12/19 11:30:40;;;;;;;10.15;6.80;;;4.20;99.90;;;;;;5052469;28;20252;-70
2023/12/19 11:33:11;;;;;;;10.18;6.85;;;4.20;99.90;;;;;;5052468;28;20206;-70
2023/12/19 11:35:39;;;;;;;8.82;6.47;;;4.30;99.90;;;;;;5051919;28;20210;-71
2023/12/19 11:38:26;;;;;;;10.75;6.95;;;4.30;99.90;;;;;;5052474;28;20237;-70
2023/12/19 11:40:55;;;;;;;9.18;6.45;;;4.30;99.90;;;;;;5052256;28;20217;-70
2023/12/19 11:43:54;;;;;;;9.95;7.10;;;4.40;99.90;;;;;;5052264;28;20210;-70
2023/12/19 11:46:25;;;;;;;9.30;7.20;;;4.40;99.90;;;;;;5051523;28;20589;-70
2023/12/19 11:48:55;;;;;;;11.52;7.40;;;4.40;99.90;;;;;;5051876;28;20201;-70
2023/12/19 11:51:50;;;;;;;10.85;7.70;;;4.40;99.90;;;;;;5052195;28;20241;-70
2023/12/19 11:54:19;;;;;;;11.02;7.20;;;4.40;99.90;;;;;;5051386;28;20308;-70
2023/12/19 11:56:57;;;;;;;10.02;6.85;;;4.40;99.90;;;;;;5052069;28;20280;-70
2023/12/19 11:59:25;;;;;;;13.65;8.38;;;4.40;99.90;;;;;;5051487;28;20230;-70
2023/12/19 12:01:56;;;;;;;10.55;7.13;;;4.50;99.90;;;;;;5051477;28;20256;-70
2023/12/19 12:04:24;;;;;;;12.75;8.05;;;4.50;99.90;;;;;;5050003;28;20248;-70
2023/12/19 12:06:56;;;;;;;12.73;7.38;;;4.50;99.90;;;;;;5051185;28;20758;-69
2023/12/19 12:09:25;;;;;;;10.63;7.30;;;4.50;99.90;;;;;;5051688;28;20210;-70
2023/12/19 12:11:54;;;;;;;8.60;6.88;;;4.50;99.90;;;;;;5051865;28;20221;-70
2023/12/19 12:14:22;;;;;;;10.10;6.90;;;4.50;99.90;;;;;;5050888;28;20202;-70
2023/12/19 12:16:51;;;;;;;10.50;7.43;;;4.50;99.90;;;;;;5051542;28;20252;-70
2023/12/19 12:19:22;;;;;;;9.98;7.53;;;4.50;99.90;;;;;;5051204;28;20296;-70
2023/12/19 12:21:53;;;;;;;9.77;6.63;;;4.50;99.90;;;;;;5051997;28;20225;-70
2023/12/19 12:24:21;;;;;;;9.65;6.78;;;4.50;99.90;;;;;;5051281;28;20217;-70
2023/12/19 12:27:10;;;;;;;11.40;7.13;;;4.50;99.90;;;;;;5051296;28;20229;-70
2023/12/19 12:29:39;;;;;;;10.30;6.82;;;4.50;99.90;;;;;;5050791;28;20591;-70
2023/12/19 12:32:07;;;;;;;9.60;6.25;;;4.40;99.90;;;;;;5051815;28;20204;-70
2023/12/19 12:34:36;;;;;;;10.25;7.07;;;4.40;99.90;;;;;;5048397;28;20267;-70
2023/12/19 12:37:05;;;;;;;10.25;7.10;;;4.50;99.90;;;;;;5050295;28;20222;-70
2023/12/19 12:39:34;;;;;;;10.35;7.13;;;4.50;99.90;;;;;;5050682;28;20252;-71
2023/12/19 12:42:02;;;;;;;9.73;7.05;;;4.60;99.90;;;;;;5050951;28;20737;-70
2023/12/19 12:44:30;;;;;;;11.95;7.50;;;4.60;99.90;;;;;;5050119;28;20737;-70
2023/12/19 12:46:58;;;;;;;9.68;6.85;;;4.60;99.90;;;;;;5050982;28;20720;-70
2023/12/19 12:49:26;;;;;;;9.30;6.90;;;4.60;99.90;;;;;;5050780;28;20238;-70